This is the latest recevied weather packets stored in our database for station/object DG7YEO-13. If no packets are shown the sender has not sent any weather packets the latest 10 day(s).
| Time | Temp. | Humidity | Pressure | Rain* | Wind** | Luminosity | Snow |
|---|---|---|---|---|---|---|---|
| 1777706225 | 18.89° C | 50% | 1018.8 hPa | 0 mm | - | - | - |
| 1777705326 | 17.78° C | 52% | 1018.8 hPa | 0 mm | - | - | - |
| 1777704425 | 16.67° C | 55% | 1018.7 hPa | 0 mm | - | - | - |
| 1777703525 | 15.56° C | 58% | 1018.8 hPa | 0 mm | - | - | - |
| 1777702625 | 14.44° C | 63% | 1018.8 hPa | 0 mm | - | - | - |
| 1777701725 | 13.33° C | 68% | 1018.9 hPa | 0 mm | - | - | - |
| 1777700825 | 11.67° C | 74% | 1018.9 hPa | 0 mm | - | - | - |
| 1777699925 | 10.56° C | 78% | 1018.9 hPa | 0 mm | - | - | - |
| 1777699025 | 10° C | 79% | 1019 hPa | 0 mm | - | - | - |
| 1777698125 | 10° C | 79% | 1019.2 hPa | 0 mm | - | - | - |
| 1777697225 | 10° C | 78% | 1019.2 hPa | 0 mm | - | - | - |
| 1777696325 | 10° C | 78% | 1019.3 hPa | 0 mm | - | - | - |
| 1777695425 | 10° C | 77% | 1019.3 hPa | 0 mm | - | - | - |
| 1777694526 | 10° C | 77% | 1019.4 hPa | 0 mm | - | - | - |
| 1777693626 | 10° C | 76% | 1019.4 hPa | 0 mm | - | - | - |
| 1777692725 | 10.56° C | 75% | 1019.4 hPa | 0 mm | - | - | - |
| 1777691825 | 10.56° C | 75% | 1019.5 hPa | 0 mm | - | - | - |
| 1777690925 | 10.56° C | 75% | 1019.6 hPa | 0 mm | - | - | - |
| 1777690024 | 11.11° C | 73% | 1019.7 hPa | 0 mm | - | - | - |
| 1777689125 | 11.11° C | 73% | 1019.7 hPa | 0 mm | - | - | - |
| 1777688225 | 11.67° C | 71% | 1019.9 hPa | 0 mm | - | - | - |
| 1777687325 | 11.67° C | 71% | 1020 hPa | 0 mm | - | - | - |
| 1777686425 | 11.67° C | 70% | 1020.1 hPa | 0 mm | - | - | - |
| 1777685525 | 12.22° C | 68% | 1020.2 hPa | 0 mm | - | - | - |
| 1777684625 | 12.78° C | 67% | 1020.3 hPa | 0 mm | - | - | - |
* Rain latest hour (hover to see other rain measurements)
** Current wind speed in m/s (hover to see current wind gust speed)